Time;durP1;ratioP1;P1;durP2;ratioP2;P2;SDS_P1;SDS_P2;PMS_P1;PMS_P2;Temp;Humidity;BMP_temperature;BMP_pressure;BME280_temperature;BME280_humidity;BME280_pressure;Samples;Min_cycle;Max_cycle;Signal;HPM_P1;HPM_P2
2021/10/16 00:00:05;;;;;;;95.85;60.75;;;;;;;8.20;74.69;101460.98;1860098;77;20875;-81
2021/10/16 00:02:35;;;;;;;101.92;60.23;;;;;;;8.23;74.72;101455.66;1859288;77;21348;-81
2021/10/16 00:05:01;;;;;;;86.70;56.37;;;;;;;8.25;74.53;101452.53;1860489;77;21048;-81
2021/10/16 00:07:29;;;;;;;90.55;56.95;;;;;;;8.24;74.49;101442.52;1860093;77;20995;-81
2021/10/16 00:09:56;;;;;;;85.60;54.95;;;;;;;8.25;74.38;101447.31;1860161;77;22194;-82
2021/10/16 00:12:22;;;;;;;89.35;53.50;;;;;;;8.23;74.29;101443.44;1860273;77;20824;-81
2021/10/16 00:14:49;;;;;;;78.90;50.38;;;;;;;8.21;74.25;101442.64;1860191;77;20977;-81
2021/10/16 00:17:15;;;;;;;86.02;54.67;;;;;;;8.18;74.24;101431.01;1843846;75;20918;-80
2021/10/16 00:19:42;;;;;;;85.92;53.92;;;;;;;8.18;74.37;101426.22;1835083;77;20835;-81
2021/10/16 00:22:10;;;;;;;89.10;55.50;;;;;;;8.18;74.55;101427.52;1834072;77;21155;-82
2021/10/16 00:24:38;;;;;;;94.15;55.28;;;;;;;8.18;74.63;101427.52;1831804;77;20839;-81
2021/10/16 00:27:05;;;;;;;87.05;57.43;;;;;;;8.17;74.65;101421.45;1830905;77;21411;-81
2021/10/16 00:29:32;;;;;;;94.22;55.00;;;;;;;8.16;74.56;101418.88;1828699;78;20871;-80
2021/10/16 00:31:59;;;;;;;82.62;53.68;;;;;;;8.16;74.51;101414.53;1828469;77;20993;-82
2021/10/16 00:34:26;;;;;;;86.87;53.60;;;;;;;8.16;74.51;101421.50;1828183;77;21122;-82
2021/10/16 00:36:53;;;;;;;85.28;54.18;;;;;;;8.12;74.69;101422.08;1828313;77;21058;-82
2021/10/16 00:39:19;;;;;;;87.02;51.68;;;;;;;8.12;74.86;101416.86;1828176;77;21001;-81
2021/10/16 00:41:46;;;;;;;88.52;54.58;;;;;;;8.13;75.03;101413.32;1828193;78;20870;-81
2021/10/16 00:44:18;;;;;;;86.95;54.03;;;;;;;8.14;75.03;101408.52;1828125;77;20894;-81
2021/10/16 00:46:45;;;;;;;93.33;53.70;;;;;;;8.10;74.95;101403.84;1828159;77;21116;-81
2021/10/16 00:49:12;;;;;;;94.10;54.63;;;;;;;8.09;74.83;101403.46;1828076;77;20969;-80
2021/10/16 00:51:40;;;;;;;90.57;54.95;;;;;;;8.08;74.77;101404.35;1828022;78;20966;-81
2021/10/16 00:54:08;;;;;;;91.95;53.02;;;;;;;8.06;74.83;101404.86;1828103;78;20930;-81
2021/10/16 00:56:37;;;;;;;90.10;57.20;;;;;;;8.05;74.83;101409.70;1828281;78;20934;-81
2021/10/16 00:59:07;;;;;;;93.37;58.15;;;;;;;8.03;74.73;101405.45;1828403;77;21787;-81
2021/10/16 01:01:35;;;;;;;105.52;60.20;;;;;;;7.99;74.59;101404.69;1827926;78;21346;-83
2021/10/16 01:04:05;;;;;;;122.05;64.30;;;;;;;7.95;74.61;101405.71;1828048;77;20898;-81
2021/10/16 01:06:32;;;;;;;122.47;69.17;;;;;;;7.89;74.58;101408.11;1828326;77;21352;-80
2021/10/16 01:08:59;;;;;;;120.50;65.50;;;;;;;7.84;74.45;101412.63;1774591;78;20930;-80
2021/10/16 01:11:43;;;;;;;112.90;63.08;;;;;;;7.79;74.46;101403.27;1774892;78;21121;-80
2021/10/16 01:14:11;;;;;;;102.50;56.33;;;;;;;7.71;74.44;101390.92;1828395;78;20961;-81
2021/10/16 01:16:41;;;;;;;96.05;53.85;;;;;;;7.59;74.71;101373.48;1833033;76;20890;-81
2021/10/16 01:19:11;;;;;;;87.85;52.95;;;;;;;7.49;75.17;101377.31;1851038;77;20928;-82
2021/10/16 01:21:46;;;;;;;93.65;56.55;;;;;;;7.43;75.70;101371.03;1850840;76;20905;-81
2021/10/16 01:24:14;;;;;;;89.62;53.45;;;;;;;7.42;76.16;101377.14;1851013;77;21083;-80
2021/10/16 01:26:43;;;;;;;87.90;51.65;;;;;;;7.43;76.36;101374.95;1850932;76;21427;-81
2021/10/16 01:29:11;;;;;;;84.62;51.60;;;;;;;7.44;76.53;101372.26;1850900;77;20937;-80
2021/10/16 01:31:38;;;;;;;88.50;53.10;;;;;;;7.44;76.49;101372.26;1851033;77;20873;-81
2021/10/16 01:34:05;;;;;;;95.22;54.73;;;;;;;7.45;76.47;101367.45;1851066;76;20905;-81
2021/10/16 01:36:49;;;;;;;99.77;52.55;;;;;;;7.45;76.47;101363.55;1850967;77;21529;-81
2021/10/16 01:39:18;;;;;;;;;;;;;;;7.45;76.49;101370.06;1853508;77;21312;-81
2021/10/16 01:41:47;;;;;;;97.50;55.88;;;;;;;7.47;76.52;101383.92;1851087;77;20416;-81
2021/10/16 01:44:14;;;;;;;96.82;56.23;;;;;;;7.48;76.40;101380.84;1851200;77;21285;-81
2021/10/16 01:46:42;;;;;;;95.12;56.48;;;;;;;7.46;76.29;101374.83;1851201;77;20854;-80
2021/10/16 01:49:13;;;;;;;106.83;55.60;;;;;;;7.42;76.13;101375.83;1850610;77;21464;-81
2021/10/16 01:51:42;;;;;;;95.62;55.20;;;;;;;7.38;76.13;101363.37;1825221;77;20927;-80
2021/10/16 01:54:10;;;;;;;97.20;53.78;;;;;;;7.37;76.18;101363.41;1850863;76;21060;-81
2021/10/16 01:56:37;;;;;;;87.67;52.35;;;;;;;7.35;76.40;101363.91;1850832;77;20850;-81
2021/10/16 01:59:19;;;;;;;84.32;46.80;;;;;;;7.35;76.67;101356.09;1851180;77;21475;-82
2021/10/16 02:02:05;;;;;;;73.10;43.60;;;;;;;7.37;76.81;101362.95;1851040;76;21339;-81
2021/10/16 02:04:33;;;;;;;72.62;48.08;;;;;;;7.42;76.88;101372.77;1850950;77;20960;-81
2021/10/16 02:07:00;;;;;;;71.05;45.55;;;;;;;7.44;76.76;101369.66;1851102;77;20917;-82
2021/10/16 02:09:29;;;;;;;74.03;46.55;;;;;;;7.46;76.57;101370.91;1850898;77;20878;-81
2021/10/16 02:11:55;;;;;;;69.55;43.75;;;;;;;7.47;76.38;101372.63;1851022;77;21557;-82
2021/10/16 02:14:22;;;;;;;62.93;41.63;;;;;;;7.46;76.23;101374.37;1850883;77;21553;-82
2021/10/16 02:16:49;;;;;;;63.65;39.60;;;;;;;7.46;76.10;101375.67;1851417;77;21067;-81
2021/10/16 02:19:18;;;;;;;64.53;39.15;;;;;;;7.46;76.12;101375.67;1852989;77;20909;-81
2021/10/16 02:21:46;;;;;;;66.22;40.35;;;;;;;7.47;76.16;101378.70;1853343;77;20846;-80
2021/10/16 02:24:13;;;;;;;59.80;38.88;;;;;;;7.49;76.16;101379.92;1824788;77;20901;-82
2021/10/16 02:26:42;;;;;;;64.97;41.23;;;;;;;7.51;76.29;101375.97;1853457;77;21020;-81
2021/10/16 02:29:10;;;;;;;64.27;42.73;;;;;;;7.51;76.14;101365.06;1852783;77;20941;-81
2021/10/16 02:31:39;;;;;;;61.77;42.17;;;;;;;7.43;75.95;101369.27;1852780;76;20857;-81
2021/10/16 02:34:07;;;;;;;65.20;40.35;;;;;;;7.36;75.92;101367.78;1853079;76;20905;-81
2021/10/16 02:36:36;;;;;;;64.53;40.45;;;;;;;7.33;76.00;101365.72;1851491;76;20842;-80
2021/10/16 02:39:03;;;;;;;57.83;38.10;;;;;;;7.28;76.23;101367.64;1853325;77;21959;-80
2021/10/16 02:41:31;;;;;;;57.20;40.43;;;;;;;7.26;76.52;101362.01;1850037;77;20902;-81
2021/10/16 02:43:58;;;;;;;61.58;43.28;;;;;;;7.28;77.05;101364.58;1853321;77;20834;-80
2021/10/16 02:46:26;;;;;;;64.75;44.18;;;;;;;7.34;77.13;101360.92;1853323;77;21335;-81
2021/10/16 02:48:53;;;;;;;69.10;41.95;;;;;;;7.40;77.12;101363.29;1853628;77;21469;-81
2021/10/16 02:51:20;;;;;;;70.85;45.25;;;;;;;7.44;76.92;101363.13;1853189;77;21134;-80
2021/10/16 02:53:48;;;;;;;59.13;38.90;;;;;;;7.48;76.74;101367.34;1824882;77;20866;-82
2021/10/16 02:56:16;;;;;;;73.15;43.02;;;;;;;7.51;76.52;101364.23;1853395;77;21379;-82
2021/10/16 02:58:43;;;;;;;61.73;40.55;;;;;;;7.51;76.42;101365.53;1853248;76;20953;-82
2021/10/16 03:01:10;;;;;;;67.00;47.62;;;;;;;7.50;76.50;101360.77;1853758;77;20901;-82
2021/10/16 03:03:38;;;;;;;70.35;49.73;;;;;;;7.52;76.57;101360.27;1853611;76;21473;-82
2021/10/16 03:06:04;;;;;;;63.85;43.42;;;;;;;7.49;76.40;101357.74;1853354;77;20842;-82
2021/10/16 03:08:33;;;;;;;59.20;41.48;;;;;;;7.47;76.49;101359.13;1853281;76;21494;-82
2021/10/16 03:11:00;;;;;;;69.42;43.42;;;;;;;7.46;76.34;101355.25;1853450;77;20964;-81
2021/10/16 03:13:33;;;;;;;68.10;40.17;;;;;;;7.48;76.24;101350.38;1852161;77;20878;-82
2021/10/16 03:16:00;;;;;;;65.35;39.75;;;;;;;7.50;76.30;101348.18;1853661;77;21099;-80
2021/10/16 03:18:28;;;;;;;57.80;37.15;;;;;;;7.48;76.34;101345.62;1852816;77;20909;-79
2021/10/16 03:20:56;;;;;;;64.45;41.48;;;;;;;7.49;76.48;101347.30;1852720;77;20874;-80
2021/10/16 03:23:25;;;;;;;62.58;40.60;;;;;;;7.50;76.58;101349.48;1853030;77;20826;-80
2021/10/16 03:25:52;;;;;;;67.35;41.75;;;;;;;7.51;76.54;101348.11;1852804;77;20865;-79
2021/10/16 03:28:19;;;;;;;60.83;40.52;;;;;;;7.54;76.46;101345.87;1852636;77;21966;-79
2021/10/16 03:32:12;;;;;;;58.20;40.35;;;;;;;7.57;76.36;101345.75;1884048;75;23045;-81
2021/10/16 03:34:40;;;;;;;61.83;38.80;;;;;;;7.52;76.36;101348.98;1860697;77;20871;-82
2021/10/16 03:37:07;;;;;;;60.38;37.67;;;;;;;7.51;76.40;101353.33;1860727;77;21141;-81
2021/10/16 03:39:36;;;;;;;65.30;42.15;;;;;;;7.51;76.41;101347.27;1860963;77;20907;-80
2021/10/16 03:42:03;;;;;;;66.30;41.23;;;;;;;7.52;76.64;101343.77;1860725;77;21373;-80
2021/10/16 03:44:32;;;;;;;67.62;43.25;;;;;;;7.51;76.53;101336.83;1860912;77;20995;-81
2021/10/16 03:46:59;;;;;;;66.95;43.95;;;;;;;7.44;76.46;101343.55;1860810;77;20832;-81
2021/10/16 03:49:26;;;;;;;68.92;45.85;;;;;;;7.38;76.55;101332.05;1860779;77;21177;-81
2021/10/16 03:51:53;;;;;;;70.40;43.58;;;;;;;7.34;76.61;101330.45;1860628;77;20863;-81
2021/10/16 03:54:20;;;;;;;76.85;40.80;;;;;;;7.33;76.85;101320.91;1860780;77;20871;-80
2021/10/16 03:56:46;;;;;;;61.95;39.23;;;;;;;7.36;77.09;101327.34;1829920;77;20914;-79
2021/10/16 03:59:14;;;;;;;61.08;37.10;;;;;;;7.40;77.14;101326.33;1860769;76;20928;-79
2021/10/16 04:01:42;;;;;;;61.58;38.80;;;;;;;7.46;77.20;101334.38;1860825;76;21983;-80
2021/10/16 04:04:08;;;;;;;75.78;45.48;;;;;;;7.51;77.13;101331.60;1830050;77;20923;-83
2021/10/16 04:06:36;;;;;;;75.92;47.43;;;;;;;7.54;76.98;101331.05;1860593;77;20926;-82
2021/10/16 04:09:03;;;;;;;78.97;46.90;;;;;;;7.56;76.79;101328.36;1860591;77;20872;-83
2021/10/16 04:11:30;;;;;;;66.62;42.15;;;;;;;7.55;76.75;101334.05;1860924;76;20998;-83
2021/10/16 04:13:58;;;;;;;62.65;40.40;;;;;;;7.57;76.62;101335.30;1860636;77;21091;-82
2021/10/16 04:16:25;;;;;;;65.72;42.40;;;;;;;7.59;76.48;101338.72;1860533;77;20907;-83
2021/10/16 04:18:52;;;;;;;63.40;40.33;;;;;;;7.58;76.48;101331.77;1860930;77;20938;-82
2021/10/16 04:21:18;;;;;;;61.15;40.00;;;;;;;7.60;76.60;101331.27;1861001;77;20943;-83
2021/10/16 04:23:47;;;;;;;61.63;41.40;;;;;;;7.61;76.59;101337.75;1860612;77;20954;-83
2021/10/16 04:26:14;;;;;;;55.40;40.03;;;;;;;7.62;76.51;101342.05;1860664;77;21150;-81
2021/10/16 04:28:41;;;;;;;57.15;39.25;;;;;;;7.64;76.40;101342.00;1861089;76;20906;-83
2021/10/16 04:31:18;;;;;;;56.53;38.40;;;;;;;7.62;76.34;101340.74;1859211;75;20974;-82
2021/10/16 04:33:45;;;;;;;60.52;38.48;;;;;;;7.63;76.33;101339.01;1861115;76;20887;-83
2021/10/16 04:36:12;;;;;;;61.25;38.08;;;;;;;7.62;76.25;101337.28;1860723;77;21407;-81
2021/10/16 04:38:47;;;;;;;55.90;36.17;;;;;;;7.59;76.42;101340.02;1860685;77;20859;-81
2021/10/16 04:41:14;;;;;;;51.45;35.68;;;;;;;7.56;76.65;101332.28;1860617;77;20883;-81
2021/10/16 04:43:41;;;;;;;56.23;36.48;;;;;;;7.54;76.93;101324.98;1860305;77;20914;-81
2021/10/16 04:46:12;;;;;;;55.03;36.83;;;;;;;7.55;77.01;101331.44;1860056;77;20946;-81
2021/10/16 04:48:44;;;;;;;64.87;40.23;;;;;;;7.57;77.08;101322.25;1860309;77;20890;-80
2021/10/16 04:51:12;;;;;;;63.20;40.05;;;;;;;7.60;77.34;101322.13;1860049;77;21126;-80
2021/10/16 04:53:39;;;;;;;59.55;37.35;;;;;;;7.67;77.40;101314.50;1860215;77;20919;-82
2021/10/16 04:56:06;;;;;;;65.25;37.83;;;;;;;7.73;77.14;101312.09;1829228;77;21415;-81
2021/10/16 04:58:34;;;;;;;55.90;33.00;;;;;;;7.77;77.05;101313.23;1859888;77;20914;-83
2021/10/16 05:01:01;;;;;;;51.83;37.28;;;;;;;7.82;77.04;101310.45;1860102;76;20868;-82
2021/10/16 05:03:27;;;;;;;55.05;36.35;;;;;;;7.87;77.09;101311.99;1859972;76;21107;-81
2021/10/16 05:05:55;;;;;;;51.05;36.75;;;;;;;7.95;77.12;101311.69;1859947;77;20962;-81
2021/10/16 05:08:22;;;;;;;53.20;36.35;;;;;;;7.99;76.93;101305.45;1860017;77;20910;-81
2021/10/16 05:10:49;;;;;;;52.90;32.25;;;;;;;8.00;76.81;101299.30;1859849;76;21499;-81
2021/10/16 05:13:16;;;;;;;59.45;39.48;;;;;;;8.00;76.88;101297.98;1860092;77;21447;-83
2021/10/16 05:15:43;;;;;;;55.52;39.53;;;;;;;8.04;76.89;101303.50;1860052;77;21508;-82
2021/10/16 05:18:12;;;;;;;56.98;37.75;;;;;;;8.09;76.65;101299.40;1860143;77;21008;-86
2021/10/16 05:20:50;;;;;;;53.02;35.92;;;;;;;8.16;76.51;101296.97;1860161;77;20951;-82
2021/10/16 05:23:17;;;;;;;52.65;34.33;;;;;;;8.23;76.48;101302.34;1860279;77;20962;-81
2021/10/16 05:25:45;;;;;;;51.05;36.13;;;;;;;8.34;76.59;101294.52;1860321;77;21455;-80
2021/10/16 05:28:13;;;;;;;53.28;35.52;;;;;;;8.43;76.62;101289.83;1859984;77;21136;-81
2021/10/16 05:30:40;;;;;;;53.65;38.23;;;;;;;8.52;76.44;101288.60;1859849;77;20867;-79
2021/10/16 05:33:11;;;;;;;56.50;37.58;;;;;;;8.60;76.10;101283.05;1859979;77;21413;-81
2021/10/16 05:35:43;;;;;;;45.23;31.93;;;;;;;8.66;75.97;101282.80;1860233;77;20935;-81
2021/10/16 05:38:07;;;;;;;39.00;25.50;;;;;;;8.70;75.81;101278.69;1859341;77;21390;-81
2021/10/16 05:40:42;;;;;;;33.00;24.45;;;;;;;8.76;75.22;101281.52;1860083;77;21796;-84
2021/10/16 05:43:12;;;;;;;35.00;24.10;;;;;;;8.82;74.31;101282.55;1796657;77;20860;-81
2021/10/16 05:45:40;;;;;;;40.45;25.88;;;;;;;8.88;73.16;101286.22;1860207;76;21317;-78
2021/10/16 05:48:08;;;;;;;36.60;26.23;;;;;;;8.94;72.95;101283.81;1859843;77;20918;-81
2021/10/16 05:50:34;;;;;;;34.92;25.32;;;;;;;9.04;72.77;101284.27;1860284;77;20963;-80
2021/10/16 05:53:02;;;;;;;39.23;26.40;;;;;;;9.10;72.11;101293.16;1859956;77;21887;-81
2021/10/16 05:55:29;;;;;;;36.55;24.23;;;;;;;9.15;71.28;101290.34;1859998;76;20907;-80
2021/10/16 05:57:56;;;;;;;42.95;23.95;;;;;;;9.20;70.62;101287.06;1859898;77;20876;-80
2021/10/16 06:00:23;;;;;;;42.08;26.75;;;;;;;9.23;70.36;101290.87;1860479;77;20915;-80
2021/10/16 06:02:59;;;;;;;43.02;26.57;;;;;;;9.29;70.46;101290.58;1860322;77;20978;-79
2021/10/16 06:05:33;;;;;;;35.73;25.27;;;;;;;9.38;70.29;101285.41;1794525;78;21149;-79
2021/10/16 06:08:08;;;;;;;38.00;27.32;;;;;;;9.42;69.66;101290.89;1830922;77;21364;-80
2021/10/16 06:10:37;;;;;;;37.98;25.72;;;;;;;9.46;69.33;101286.77;1861069;76;20994;-81
2021/10/16 06:13:04;;;;;;;32.33;25.02;;;;;;;9.51;69.30;101290.02;1860305;77;20844;-80
2021/10/16 06:15:31;;;;;;;35.63;24.37;;;;;;;9.59;69.42;101288.38;1829678;77;20840;-81
2021/10/16 06:17:58;;;;;;;34.80;24.35;;;;;;;9.69;69.08;101284.87;1860411;77;22111;-81
2021/10/16 06:20:30;;;;;;;33.28;25.00;;;;;;;9.79;68.66;101275.69;1860118;76;20954;-81
2021/10/16 06:22:55;;;;;;;37.83;26.55;;;;;;;9.93;68.42;101278.97;1859639;76;21539;-81
2021/10/16 06:25:22;;;;;;;37.42;26.55;;;;;;;10.07;68.05;101278.31;1859886;76;20868;-81
2021/10/16 06:27:49;;;;;;;34.35;25.00;;;;;;;10.19;67.74;101278.21;1860423;77;20903;-81
2021/10/16 06:30:16;;;;;;;36.53;24.77;;;;;;;10.29;67.48;101279.48;1863374;77;22244;-80
2021/10/16 06:32:43;;;;;;;37.93;26.37;;;;;;;10.36;66.71;101282.22;1854483;77;20857;-81
2021/10/16 06:35:10;;;;;;;33.92;25.60;;;;;;;10.42;66.19;101275.34;1852514;77;20830;-81
2021/10/16 06:37:37;;;;;;;35.63;22.07;;;;;;;10.49;65.78;101275.89;1852735;77;20898;-80
2021/10/16 06:40:06;;;;;;;35.00;22.45;;;;;;;10.54;65.40;101272.61;1852787;77;21023;-81
2021/10/16 06:42:35;;;;;;;33.20;21.10;;;;;;;10.54;65.17;101273.45;1852568;77;21447;-82
2021/10/16 06:45:20;;;;;;;28.85;20.08;;;;;;;10.58;65.19;101275.00;1852612;77;20925;-82
2021/10/16 06:47:58;;;;;;;32.17;19.45;;;;;;;10.70;65.06;101262.19;1851362;77;20948;-82
2021/10/16 06:50:28;;;;;;;33.50;20.10;;;;;;;10.84;64.90;101259.70;1848356;77;21345;-80
2021/10/16 06:52:55;;;;;;;29.90;18.52;;;;;;;10.95;64.59;101253.44;1852394;77;21011;-80
2021/10/16 06:55:24;;;;;;;32.40;20.52;;;;;;;11.10;63.93;101252.28;1851811;77;21113;-83
2021/10/16 06:57:54;;;;;;;31.15;19.85;;;;;;;11.25;63.33;101255.42;1823687;77;20940;-83
2021/10/16 07:00:22;;;;;;;28.62;19.85;;;;;;;11.41;62.46;101250.20;1852754;77;20881;-82
2021/10/16 07:02:49;;;;;;;29.07;19.02;;;;;;;11.55;61.61;101262.12;1852816;77;20878;-83
2021/10/16 07:05:17;;;;;;;30.60;19.15;;;;;;;11.67;60.99;101253.19;1852946;77;21077;-83
2021/10/16 07:07:53;;;;;;;32.25;20.48;;;;;;;11.76;60.52;101244.36;1825978;77;21095;-81
2021/10/16 07:10:21;;;;;;;31.30;19.90;;;;;;;11.87;60.06;101247.68;1847352;77;21300;-82
2021/10/16 07:12:56;;;;;;;30.08;19.92;;;;;;;12.00;60.10;101242.16;1850425;77;20932;-82
2021/10/16 07:15:39;;;;;;;32.38;21.23;;;;;;;12.13;59.89;101234.43;1850435;76;21059;-81
2021/10/16 07:18:10;;;;;;;30.45;21.52;;;;;;;12.31;59.60;101236.95;1850801;77;20940;-82
2021/10/16 07:20:38;;;;;;;30.95;19.37;;;;;;;12.44;58.63;101230.89;1849969;77;20936;-81
2021/10/16 07:23:07;;;;;;;31.75;20.70;;;;;;;12.56;58.22;101229.80;1849881;77;20999;-81
2021/10/16 07:25:34;;;;;;;29.20;20.32;;;;;;;12.61;57.53;101225.12;1847217;77;20869;-83
2021/10/16 07:28:01;;;;;;;30.02;21.23;;;;;;;12.69;57.83;101223.34;1849718;77;20909;-79
2021/10/16 07:30:28;;;;;;;30.90;19.55;;;;;;;12.78;57.21;101218.41;1849318;77;21462;-81
2021/10/16 07:32:56;;;;;;;30.35;19.62;;;;;;;12.91;57.16;101222.92;1838080;77;21704;-81
2021/10/16 07:35:23;;;;;;;27.15;18.32;;;;;;;12.99;56.81;101225.95;1834678;77;21514;-81
2021/10/16 07:37:51;;;;;;;33.15;18.87;;;;;;;13.08;56.30;101230.65;1834876;76;20887;-81
2021/10/16 07:40:20;;;;;;;28.05;17.67;;;;;;;13.18;55.86;101219.91;1834730;77;20848;-81
2021/10/16 07:42:50;;;;;;;21.65;16.15;;;;;;;13.24;55.25;101219.55;1834565;77;20859;-81
2021/10/16 07:45:17;;;;;;;24.92;16.67;;;;;;;13.30;55.17;101213.09;1834831;77;21293;-80
2021/10/16 07:47:45;;;;;;;26.00;17.73;;;;;;;13.38;54.94;101210.81;1834922;77;20867;-80
2021/10/16 07:50:12;;;;;;;31.20;18.55;;;;;;;13.43;54.48;101208.76;1835033;77;20891;-80
2021/10/16 07:52:40;;;;;;;31.20;17.67;;;;;;;13.50;54.05;101214.97;1834964;77;20971;-81
2021/10/16 07:55:07;;;;;;;24.50;18.02;;;;;;;13.51;53.74;101212.69;1834863;77;21005;-80
2021/10/16 07:57:35;;;;;;;25.70;16.70;;;;;;;13.52;53.83;101216.56;1835706;77;22000;-80
2021/10/16 08:00:02;;;;;;;27.82;17.12;;;;;;;13.55;53.67;101216.35;1836524;77;20890;-80
2021/10/16 08:02:31;;;;;;;24.60;17.48;;;;;;;13.55;53.67;101217.67;1833527;78;20835;-80
2021/10/16 08:04:59;;;;;;;27.90;17.75;;;;;;;13.58;53.71;101214.83;1835402;76;20922;-81
2021/10/16 08:07:26;;;;;;;28.60;16.48;;;;;;;13.62;53.59;101211.06;1834710;77;21372;-85
2021/10/16 08:09:53;;;;;;;28.25;17.87;;;;;;;13.67;53.52;101202.42;1835130;76;21099;-82
2021/10/16 08:12:21;;;;;;;24.57;16.97;;;;;;;13.74;53.31;101203.32;1834668;77;20902;-81
2021/10/16 08:14:49;;;;;;;23.27;16.27;;;;;;;13.83;53.19;101198.32;1834703;76;20860;-85
2021/10/16 08:17:16;;;;;;;33.18;18.57;;;;;;;13.93;53.28;101199.05;1834886;77;20934;-83
2021/10/16 08:19:43;;;;;;;24.75;15.90;;;;;;;14.01;52.70;101198.08;1834712;77;21384;-84
2021/10/16 08:22:10;;;;;;;27.05;17.87;;;;;;;14.13;52.73;101194.62;1835192;76;21103;-81
2021/10/16 08:24:57;;;;;;;27.52;15.72;;;;;;;14.23;52.62;101193.56;1832178;77;20866;-81
2021/10/16 08:27:34;;;;;;;20.40;15.83;;;;;;;14.35;52.29;101195.85;1835285;77;20942;-80
2021/10/16 08:30:05;;;;;;;27.35;17.75;;;;;;;14.45;52.34;101195.59;1735132;81;20970;-81
2021/10/16 08:32:56;;;;;;;27.07;17.17;;;;;;;14.59;52.34;101201.31;1809831;78;20876;-81
2021/10/16 08:35:23;;;;;;;25.12;17.37;;;;;;;14.74;51.96;101195.45;1810313;79;21840;-80
2021/10/16 08:37:49;;;;;;;25.88;16.93;;;;;;;15.12;50.83;101192.82;1784305;80;20950;-80
2021/10/16 08:40:17;;;;;;;26.12;18.82;;;;;;;15.30;50.97;101199.93;1800293;79;21420;-81
2021/10/16 08:42:45;;;;;;;26.10;17.75;;;;;;;15.30;50.97;101199.93;1800387;79;20883;-82
2021/10/16 08:45:16;;;;;;;30.48;17.90;;;;;;;15.47;50.26;101192.11;1748716;79;21479;-82
2021/10/16 08:47:43;;;;;;;31.33;19.23;;;;;;;15.64;50.10;101203.64;1773731;79;21178;-83
2021/10/16 08:50:10;;;;;;;26.12;17.82;;;;;;;15.80;49.53;101204.72;1799204;79;20843;-82
2021/10/16 08:52:37;;;;;;;21.87;16.65;;;;;;;15.99;49.29;101198.11;1800395;79;21048;-79
2021/10/16 08:55:05;;;;;;;24.00;16.73;;;;;;;16.24;48.57;101191.84;1800433;79;20969;-83
2021/10/16 08:57:34;;;;;;;25.65;18.10;;;;;;;16.62;47.93;101188.09;1800338;79;20907;-83
2021/10/16 09:00:49;;;;;;;23.45;16.30;;;;;;;17.28;47.45;101185.66;1800647;79;21766;-83
2021/10/16 09:03:31;;;;;;;26.87;17.35;;;;;;;17.94;45.67;101184.32;1798310;79;21411;-84
2021/10/16 09:06:15;;;;;;;26.07;16.00;;;;;;;18.57;44.25;101181.75;1800233;79;21051;-80
2021/10/16 09:08:48;;;;;;;24.92;16.55;;;;;;;18.87;43.12;101184.10;1799060;79;20895;-83
2021/10/16 09:11:28;;;;;;;23.40;15.88;;;;;;;19.08;42.52;101163.64;1800622;79;20863;-84
2021/10/16 09:14:04;;;;;;;24.75;16.62;;;;;;;19.22;42.04;101164.59;1800097;79;21121;-83
2021/10/16 09:16:42;;;;;;;24.05;16.45;;;;;;;19.25;41.49;101161.69;1800164;79;20906;-82
2021/10/16 09:19:24;;;;;;;23.70;16.32;;;;;;;19.18;41.20;101162.34;1800321;79;21461;-83
2021/10/16 09:22:07;;;;;;;24.20;15.85;;;;;;;19.07;41.36;101169.92;1800518;79;20954;-83
2021/10/16 09:24:43;;;;;;;20.88;15.30;;;;;;;18.89;41.33;101163.06;1800251;79;20804;-85
2021/10/16 09:27:19;;;;;;;20.57;13.93;;;;;;;18.70;41.78;101158.47;1800584;79;21731;-85
2021/10/16 09:29:51;;;;;;;24.57;14.73;;;;;;;18.50;42.58;101150.02;1800209;79;20911;-84
2021/10/16 09:32:24;;;;;;;22.87;15.68;;;;;;;18.35;42.85;101148.19;1794904;79;20907;-82
2021/10/16 09:35:04;;;;;;;24.20;15.50;;;;;;;18.21;43.01;101146.21;1789188;79;20840;-78
2021/10/16 09:37:33;;;;;;;24.37;16.57;;;;;;;18.07;43.11;101140.36;1788753;79;20899;-84
2021/10/16 09:40:00;;;;;;;23.02;15.35;;;;;;;17.89;43.14;101126.81;1788901;79;21800;-79
2021/10/16 09:42:40;;;;;;;26.07;15.23;;;;;;;17.71;43.34;101129.98;1788775;80;20954;-80
2021/10/16 09:45:07;;;;;;;24.77;15.08;;;;;;;17.59;43.87;101133.65;1787572;79;20864;-79
2021/10/16 09:47:33;;;;;;;22.45;14.43;;;;;;;17.52;44.29;101130.66;1788766;79;20864;-81
2021/10/16 09:50:06;;;;;;;23.85;15.25;;;;;;;17.48;44.26;101125.23;1788972;79;21329;-79
2021/10/16 09:52:36;;;;;;;24.27;16.77;;;;;;;17.42;44.79;101123.07;1788908;79;21790;-87
2021/10/16 09:55:06;;;;;;;24.90;15.72;;;;;;;17.39;45.04;101116.70;1788857;79;20903;-79
2021/10/16 09:57:33;;;;;;;22.20;15.30;;;;;;;17.43;45.37;101118.14;1788880;80;20852;-82
2021/10/16 10:00:00;;;;;;;23.85;15.70;;;;;;;17.47;45.26;101115.58;1788819;79;20868;-80
2021/10/16 10:02:32;;;;;;;21.97;14.90;;;;;;;17.49;45.63;101108.83;1788831;79;21420;-80
2021/10/16 10:04:59;;;;;;;28.27;15.75;;;;;;;17.52;45.52;101101.48;1788971;80;22172;-80
2021/10/16 10:07:26;;;;;;;20.90;14.83;;;;;;;17.51;45.23;101101.11;1788594;79;20974;-82
2021/10/16 10:09:52;;;;;;;23.95;15.43;;;;;;;17.52;45.54;101100.16;1788878;79;21321;-78
2021/10/16 10:12:21;;;;;;;27.90;16.05;;;;;;;17.52;45.65;101091.33;1788598;80;21324;-79
2021/10/16 10:14:50;;;;;;;24.87;15.95;;;;;;;17.49;45.53;101100.39;1788925;79;20859;-79
2021/10/16 10:17:26;;;;;;;23.80;15.53;;;;;;;17.46;45.46;101092.70;1788778;79;21519;-78
2021/10/16 10:20:12;;;;;;;30.45;17.25;;;;;;;17.38;45.50;101091.14;1788936;79;20907;-80
2021/10/16 10:22:41;;;;;;;26.48;16.00;;;;;;;17.24;45.64;101082.98;1788692;79;20840;-80
2021/10/16 10:25:23;;;;;;;27.17;15.23;;;;;;;17.03;46.17;101085.56;1788708;79;20966;-79
2021/10/16 10:27:52;;;;;;;29.10;15.75;;;;;;;16.86;46.37;101088.22;1788717;79;20867;-78
2021/10/16 10:30:40;;;;;;;22.22;14.98;;;;;;;16.73;47.06;101080.84;1789047;79;21144;-79
2021/10/16 10:33:20;;;;;;;27.27;15.65;;;;;;;16.60;47.26;101072.17;1779872;79;20928;-80
2021/10/16 10:36:00;;;;;;;21.07;15.05;;;;;;;16.50;47.61;101072.06;1792905;78;21375;-80
2021/10/16 10:38:35;;;;;;;30.00;15.43;;;;;;;16.47;48.00;101069.63;1761524;80;20981;-81
2021/10/16 10:41:27;;;;;;;23.07;15.28;;;;;;;16.46;48.12;101070.13;1755478;81;21383;-79
2021/10/16 10:43:54;;;;;;;27.73;15.80;;;;;;;16.49;47.88;101070.36;1811902;77;21125;-79
2021/10/16 10:46:25;;;;;;;26.65;15.50;;;;;;;16.52;48.17;101064.36;1811472;79;20911;-81
2021/10/16 10:48:52;;;;;;;24.18;16.15;;;;;;;16.51;48.53;101049.42;1811435;78;20907;-79
2021/10/16 10:51:35;;;;;;;25.48;15.25;;;;;;;16.51;48.53;101049.42;1811993;79;20892;-80
2021/10/16 10:54:16;;;;;;;24.15;15.35;;;;;;;16.49;48.58;101051.83;1811279;79;20924;-80
2021/10/16 10:56:46;;;;;;;27.87;15.35;;;;;;;16.40;48.77;101053.87;1812081;79;21130;-79
2021/10/16 10:59:18;;;;;;;24.00;14.20;;;;;;;16.40;48.97;101049.90;1811714;79;20872;-79
2021/10/16 11:01:59;;;;;;;22.00;14.45;;;;;;;16.42;49.39;101052.78;1811912;77;20923;-79
2021/10/16 11:04:46;;;;;;;25.70;15.83;;;;;;;16.44;49.45;101054.84;1811853;77;20982;-79
2021/10/16 11:07:39;;;;;;;27.15;17.05;;;;;;;16.44;49.20;101050.03;1811935;77;20868;-81
2021/10/16 11:10:06;;;;;;;23.35;15.45;;;;;;;16.42;49.58;101051.47;1811761;77;21201;-81
2021/10/16 11:12:37;;;;;;;24.00;15.13;;;;;;;16.43;49.60;101050.52;1811643;77;21359;-80
2021/10/16 11:15:07;;;;;;;25.75;16.27;;;;;;;16.36;49.57;101042.21;1811830;77;20994;-81
2021/10/16 11:17:46;;;;;;;25.17;15.43;;;;;;;16.30;50.40;101038.70;1811854;77;21489;-80
2021/10/16 11:20:17;;;;;;;25.88;16.20;;;;;;;16.30;50.40;101038.70;1811858;79;20880;-80
2021/10/16 11:22:52;;;;;;;30.45;15.95;;;;;;;16.36;50.66;101037.37;1811970;79;21095;-78
2021/10/16 11:25:26;;;;;;;25.48;15.20;;;;;;;16.43;50.68;101028.47;1811691;78;20904;-81
2021/10/16 11:28:10;;;;;;;24.55;14.80;;;;;;;16.49;50.59;101030.65;1811989;77;20904;-79